Pagina principale
METAR-TAF:

METAR-TAF

Aeroporti :

Piattaforma petrolifera

P11-b, Paesi Bassi

latitudine: 52-21-36N, longitudine: 3-20-30E, altezza: 24 m

Osservazione

Il bollettino è stato emesso 30 minuti fa, alle 18:25 UTC
Vento 15 kt da direzioni variabili
Temperature 6°C
Umidità 87%
Pressione 1004 hPa
Visibilità: 6000 m
Nuvoloso ad un'altezza di 600 ft
Cielo coperto ad un'altezza di 800 ft

METAR: EHPG 211825Z AUTO VRB15KT 6000 BKN006 OVC008 06/04 Q1004 W///H///

Ora: 19:55 (18:55 UTC)


TAF: mancante

Osservazioni e previsioni meteorologiche di più di 4000 aeroporti (messaggi METAR e TAF).

Le stazioni disponibili sono rappresentate dai dischi gialli e rossi sulla carta.

Puntare il mouse per vedere il nome della stazione.

Clicca sopra per visualizzare le osservazioni e previsioni meteorologiche.

Per cambiare la mappa : fare clic sui pulsanti verdi con una croce nera per ingrandire, il pulsante verde con un trattino per diminuire, o sulla freccia verde per le mappe adiacenti.


METAR-TAF: